sensor_id;sensor_type;location;lat;lon;timestamp;pressure;altitude;pressure_sealevel;temperature;humidity
62789;BME280;66401;42.016;21.454;2024-02-26T00:02:20;97756.13;;;12.22;91.49
62789;BME280;66401;42.016;21.454;2024-02-26T00:04:46;97757.72;;;12.23;91.55
62789;BME280;66401;42.016;21.454;2024-02-26T00:07:11;97763.03;;;12.17;92.50
62789;BME280;66401;42.016;21.454;2024-02-26T00:09:37;97763.22;;;12.15;93.22
62789;BME280;66401;42.016;21.454;2024-02-26T00:12:11;97748.75;;;12.19;91.99
62789;BME280;66401;42.016;21.454;2024-02-26T00:14:37;97754.81;;;12.13;92.02
62789;BME280;66401;42.016;21.454;2024-02-26T00:17:02;97754.81;;;12.13;92.26
62789;BME280;66401;42.016;21.454;2024-02-26T00:19:28;97748.56;;;12.14;91.74
62789;BME280;66401;42.016;21.454;2024-02-26T00:21:53;97751.63;;;12.11;92.57
62789;BME280;66401;42.016;21.454;2024-02-26T00:24:20;97733.53;;;12.16;91.50
62789;BME280;66401;42.016;21.454;2024-02-26T00:26:46;97740.53;;;12.16;91.84
62789;BME280;66401;42.016;21.454;2024-02-26T00:29:11;97749.59;;;12.13;92.52
62789;BME280;66401;42.016;21.454;2024-02-26T00:31:37;97743.97;;;12.16;91.46
62789;BME280;66401;42.016;21.454;2024-02-26T00:34:05;97753.38;;;12.17;90.58
62789;BME280;66401;42.016;21.454;2024-02-26T00:36:31;97742.34;;;12.15;91.53
62789;BME280;66401;42.016;21.454;2024-02-26T00:38:56;97751.34;;;12.19;91.40
62789;BME280;66401;42.016;21.454;2024-02-26T00:41:22;97745.97;;;12.14;90.90
62789;BME280;66401;42.016;21.454;2024-02-26T00:43:48;97751.19;;;12.14;91.83
62789;BME280;66401;42.016;21.454;2024-02-26T00:46:14;97743.78;;;12.11;91.26
62789;BME280;66401;42.016;21.454;2024-02-26T00:48:39;97745.59;;;12.11;90.85
62789;BME280;66401;42.016;21.454;2024-02-26T00:51:05;97723.66;;;11.93;90.99
62789;BME280;66401;42.016;21.454;2024-02-26T00:53:31;97741.88;;;12.00;92.08
62789;BME280;66401;42.016;21.454;2024-02-26T00:55:57;97738.84;;;12.03;91.33
62789;BME280;66401;42.016;21.454;2024-02-26T00:58:24;97749.22;;;12.10;91.57
62789;BME280;66401;42.016;21.454;2024-02-26T01:00:50;97749.19;;;12.16;90.80
62789;BME280;66401;42.016;21.454;2024-02-26T01:03:15;97731.66;;;11.98;92.48
62789;BME280;66401;42.016;21.454;2024-02-26T01:05:42;97732.88;;;11.96;91.19
62789;BME280;66401;42.016;21.454;2024-02-26T01:08:07;97734.19;;;12.05;92.09
62789;BME280;66401;42.016;21.454;2024-02-26T01:10:33;97728.97;;;12.05;91.47
62789;BME280;66401;42.016;21.454;2024-02-26T01:12:59;97700.88;;;11.75;93.00
62789;BME280;66401;42.016;21.454;2024-02-26T01:15:25;97724.72;;;11.86;92.46
62789;BME280;66401;42.016;21.454;2024-02-26T01:17:51;97722.09;;;11.86;92.93
62789;BME280;66401;42.016;21.454;2024-02-26T01:20:16;97721.38;;;11.72;94.46
62789;BME280;66401;42.016;21.454;2024-02-26T01:22:43;97719.56;;;11.72;93.67
62789;BME280;66401;42.016;21.454;2024-02-26T01:25:09;97721.75;;;11.82;92.97
62789;BME280;66401;42.016;21.454;2024-02-26T01:27:36;97718.47;;;11.87;92.33
62789;BME280;66401;42.016;21.454;2024-02-26T01:30:04;97724.09;;;11.90;94.01
62789;BME280;66401;42.016;21.454;2024-02-26T01:32:30;97711.25;;;11.89;93.13
62789;BME280;66401;42.016;21.454;2024-02-26T01:34:56;97704.44;;;11.88;93.03
62789;BME280;66401;42.016;21.454;2024-02-26T01:37:22;97709.81;;;11.93;92.97
62789;BME280;66401;42.016;21.454;2024-02-26T01:39:48;97701.53;;;11.96;92.42
62789;BME280;66401;42.016;21.454;2024-02-26T01:42:13;97701.63;;;11.89;92.83
62789;BME280;66401;42.016;21.454;2024-02-26T01:44:39;97707.06;;;11.88;93.32
62789;BME280;66401;42.016;21.454;2024-02-26T01:47:07;97693.63;;;11.84;92.82
62789;BME280;66401;42.016;21.454;2024-02-26T01:49:34;97698.00;;;11.90;93.16
62789;BME280;66401;42.016;21.454;2024-02-26T01:52:01;97689.63;;;11.82;93.67
62789;BME280;66401;42.016;21.454;2024-02-26T01:54:28;97690.03;;;11.79;94.31
62789;BME280;66401;42.016;21.454;2024-02-26T01:56:55;97683.63;;;11.74;94.31
62789;BME280;66401;42.016;21.454;2024-02-26T01:59:20;97701.22;;;11.86;93.27
62789;BME280;66401;42.016;21.454;2024-02-26T02:01:48;97693.66;;;11.78;93.50
62789;BME280;66401;42.016;21.454;2024-02-26T02:04:18;97693.66;;;11.78;94.75
62789;BME280;66401;42.016;21.454;2024-02-26T02:06:45;97683.50;;;11.69;94.10
62789;BME280;66401;42.016;21.454;2024-02-26T02:09:11;97678.13;;;11.58;96.21
62789;BME280;66401;42.016;21.454;2024-02-26T02:11:37;97685.38;;;11.56;95.97
62789;BME280;66401;42.016;21.454;2024-02-26T02:14:03;97683.75;;;11.61;95.86
62789;BME280;66401;42.016;21.454;2024-02-26T02:16:29;97663.34;;;11.52;95.96
62789;BME280;66401;42.016;21.454;2024-02-26T02:18:54;97659.38;;;11.49;95.06
62789;BME280;66401;42.016;21.454;2024-02-26T02:21:20;97682.56;;;11.57;96.43
62789;BME280;66401;42.016;21.454;2024-02-26T02:23:45;97685.81;;;11.53;96.43
62789;BME280;66401;42.016;21.454;2024-02-26T02:26:13;97663.66;;;11.37;97.33
62789;BME280;66401;42.016;21.454;2024-02-26T02:28:39;97676.53;;;11.32;96.51
62789;BME280;66401;42.016;21.454;2024-02-26T02:31:05;97688.38;;;11.28;97.94
62789;BME280;66401;42.016;21.454;2024-02-26T02:33:31;97676.25;;;11.08;98.76
62789;BME280;66401;42.016;21.454;2024-02-26T02:35:56;97684.75;;;11.29;97.94
62789;BME280;66401;42.016;21.454;2024-02-26T02:38:23;97662.72;;;11.25;98.51
62789;BME280;66401;42.016;21.454;2024-02-26T02:40:53;97671.53;;;11.30;98.73
62789;BME280;66401;42.016;21.454;2024-02-26T02:43:19;97670.72;;;11.30;97.92
62789;BME280;66401;42.016;21.454;2024-02-26T02:45:44;97665.56;;;11.23;98.08
62789;BME280;66401;42.016;21.454;2024-02-26T02:48:13;97673.94;;;11.32;97.65
62789;BME280;66401;42.016;21.454;2024-02-26T02:50:39;97683.13;;;11.34;98.59
62789;BME280;66401;42.016;21.454;2024-02-26T02:53:04;97671.72;;;11.29;97.43
62789;BME280;66401;42.016;21.454;2024-02-26T02:55:30;97673.69;;;11.40;97.47
62789;BME280;66401;42.016;21.454;2024-02-26T02:57:55;97668.88;;;11.37;96.44
62789;BME280;66401;42.016;21.454;2024-02-26T03:00:21;97669.53;;;11.26;97.49
62789;BME280;66401;42.016;21.454;2024-02-26T03:02:50;97680.75;;;11.26;97.78
62789;BME280;66401;42.016;21.454;2024-02-26T03:05:15;97679.28;;;11.37;96.08
62789;BME280;66401;42.016;21.454;2024-02-26T03:07:41;97665.34;;;11.25;94.92
62789;BME280;66401;42.016;21.454;2024-02-26T03:10:07;97675.31;;;11.34;94.70
62789;BME280;66401;42.016;21.454;2024-02-26T03:12:33;97681.56;;;11.27;94.79
62789;BME280;66401;42.016;21.454;2024-02-26T03:14:59;97662.38;;;11.21;92.64
62789;BME280;66401;42.016;21.454;2024-02-26T03:17:28;97672.69;;;11.34;93.27
62789;BME280;66401;42.016;21.454;2024-02-26T03:19:54;97686.19;;;11.25;93.32
62789;BME280;66401;42.016;21.454;2024-02-26T03:22:20;97685.84;;;11.14;93.13
62789;BME280;66401;42.016;21.454;2024-02-26T03:24:46;97676.25;;;11.08;93.21
62789;BME280;66401;42.016;21.454;2024-02-26T03:27:12;97676.09;;;11.03;93.85
62789;BME280;66401;42.016;21.454;2024-02-26T03:29:38;97687.28;;;11.10;93.07
62789;BME280;66401;42.016;21.454;2024-02-26T03:32:07;97677.44;;;11.12;92.65
62789;BME280;66401;42.016;21.454;2024-02-26T03:34:32;97679.03;;;11.13;92.25
62789;BME280;66401;42.016;21.454;2024-02-26T03:37:01;97671.09;;;11.02;93.21
62789;BME280;66401;42.016;21.454;2024-02-26T03:39:26;97667.34;;;10.91;93.64
62789;BME280;66401;42.016;21.454;2024-02-26T03:41:52;97652.53;;;10.85;92.87
62789;BME280;66401;42.016;21.454;2024-02-26T03:44:17;97670.56;;;10.80;93.83
62789;BME280;66401;42.016;21.454;2024-02-26T03:46:43;97676.41;;;10.82;93.42
62789;BME280;66401;42.016;21.454;2024-02-26T03:49:09;97679.59;;;10.84;92.93
62789;BME280;66401;42.016;21.454;2024-02-26T03:51:34;97671.22;;;10.69;93.44
62789;BME280;66401;42.016;21.454;2024-02-26T03:54:00;97675.06;;;10.66;94.00
62789;BME280;66401;42.016;21.454;2024-02-26T03:56:26;97675.28;;;10.65;93.71
62789;BME280;66401;42.016;21.454;2024-02-26T03:58:52;97676.66;;;10.60;93.92
62789;BME280;66401;42.016;21.454;2024-02-26T04:01:18;97676.72;;;10.47;94.59
62789;BME280;66401;42.016;21.454;2024-02-26T04:03:43;97672.38;;;10.28;95.42
62789;BME280;66401;42.016;21.454;2024-02-26T04:06:09;97683.19;;;10.25;95.19
62789;BME280;66401;42.016;21.454;2024-02-26T04:08:46;97672.00;;;10.24;95.19
62789;BME280;66401;42.016;21.454;2024-02-26T04:11:12;97678.38;;;10.22;95.13
62789;BME280;66401;42.016;21.454;2024-02-26T04:13:38;97678.38;;;10.09;96.50
62789;BME280;66401;42.016;21.454;2024-02-26T04:16:05;97679.97;;;10.10;96.71
62789;BME280;66401;42.016;21.454;2024-02-26T04:18:31;97691.59;;;10.14;95.88
62789;BME280;66401;42.016;21.454;2024-02-26T04:20:57;97692.19;;;10.16;96.69
62789;BME280;66401;42.016;21.454;2024-02-26T04:23:22;97678.78;;;10.06;96.75
62789;BME280;66401;42.016;21.454;2024-02-26T04:25:48;97679.81;;;10.04;97.26
62789;BME280;66401;42.016;21.454;2024-02-26T04:28:14;97694.78;;;10.16;96.79
62789;BME280;66401;42.016;21.454;2024-02-26T04:30:40;97696.81;;;10.14;96.36
62789;BME280;66401;42.016;21.454;2024-02-26T04:33:06;97683.78;;;10.00;97.01
62789;BME280;66401;42.016;21.454;2024-02-26T04:35:31;97696.00;;;10.07;97.07
62789;BME280;66401;42.016;21.454;2024-02-26T04:37:57;97688.41;;;9.98;96.65
62789;BME280;66401;42.016;21.454;2024-02-26T04:40:23;97690.00;;;10.06;96.42
62789;BME280;66401;42.016;21.454;2024-02-26T04:42:49;97699.41;;;10.07;95.91
62789;BME280;66401;42.016;21.454;2024-02-26T04:45:15;97698.19;;;10.10;96.51
62789;BME280;66401;42.016;21.454;2024-02-26T04:47:40;97692.00;;;10.04;96.97
62789;BME280;66401;42.016;21.454;2024-02-26T04:50:06;97695.00;;;10.08;96.16
62789;BME280;66401;42.016;21.454;2024-02-26T04:52:31;97694.78;;;10.16;95.69
62789;BME280;66401;42.016;21.454;2024-02-26T04:54:57;97700.78;;;10.16;97.68
62789;BME280;66401;42.016;21.454;2024-02-26T04:57:25;97694.00;;;10.15;96.07
62789;BME280;66401;42.016;21.454;2024-02-26T04:59:51;97696.59;;;10.22;96.48
62789;BME280;66401;42.016;21.454;2024-02-26T05:02:17;97700.00;;;10.22;96.50
62789;BME280;66401;42.016;21.454;2024-02-26T05:04:43;97707.00;;;10.28;95.94
62789;BME280;66401;42.016;21.454;2024-02-26T05:07:08;97694.97;;;10.21;97.25
62789;BME280;66401;42.016;21.454;2024-02-26T05:09:34;97704.59;;;10.27;96.92
62789;BME280;66401;42.016;21.454;2024-02-26T05:12:00;97696.41;;;10.23;96.68
62789;BME280;66401;42.016;21.454;2024-02-26T05:14:25;97678.75;;;10.12;96.59
62789;BME280;66401;42.016;21.454;2024-02-26T05:16:51;97713.59;;;10.31;97.99
62789;BME280;66401;42.016;21.454;2024-02-26T05:19:16;97709.59;;;10.28;97.15
62789;BME280;66401;42.016;21.454;2024-02-26T05:21:42;97698.41;;;10.35;97.27
62789;BME280;66401;42.016;21.454;2024-02-26T05:24:09;97701.78;;;10.35;97.00
62789;BME280;66401;42.016;21.454;2024-02-26T05:26:35;97698.78;;;10.38;97.44
62789;BME280;66401;42.016;21.454;2024-02-26T05:29:00;97715.19;;;10.45;97.52
62789;BME280;66401;42.016;21.454;2024-02-26T05:31:26;97718.59;;;10.39;98.06
62789;BME280;66401;42.016;21.454;2024-02-26T05:33:52;97715.19;;;10.39;97.58
62789;BME280;66401;42.016;21.454;2024-02-26T05:36:22;97716.00;;;10.39;96.85
62789;BME280;66401;42.016;21.454;2024-02-26T05:38:51;97724.00;;;10.44;98.32
62789;BME280;66401;42.016;21.454;2024-02-26T05:41:17;97719.97;;;10.48;97.52
62789;BME280;66401;42.016;21.454;2024-02-26T05:43:49;97725.59;;;10.45;97.38
62789;BME280;66401;42.016;21.454;2024-02-26T05:46:16;97715.56;;;10.49;97.09
62789;BME280;66401;42.016;21.454;2024-02-26T05:48:43;97717.38;;;10.48;97.43
62789;BME280;66401;42.016;21.454;2024-02-26T05:51:09;97733.19;;;10.53;97.06
62789;BME280;66401;42.016;21.454;2024-02-26T05:53:34;97730.59;;;10.53;96.61
62789;BME280;66401;42.016;21.454;2024-02-26T05:56:00;97725.75;;;10.57;96.92
62789;BME280;66401;42.016;21.454;2024-02-26T05:58:25;97714.97;;;10.53;97.00
62789;BME280;66401;42.016;21.454;2024-02-26T06:00:51;97731.75;;;10.64;95.83
62789;BME280;66401;42.016;21.454;2024-02-26T06:03:16;97733.34;;;10.65;96.43
62789;BME280;66401;42.016;21.454;2024-02-26T06:05:42;97727.94;;;10.60;96.69
62789;BME280;66401;42.016;21.454;2024-02-26T06:08:08;97731.13;;;10.69;96.53
62789;BME280;66401;42.016;21.454;2024-02-26T06:10:33;97735.16;;;10.71;96.40
62789;BME280;66401;42.016;21.454;2024-02-26T06:12:59;97740.53;;;10.70;96.10
62789;BME280;66401;42.016;21.454;2024-02-26T06:15:27;97720.72;;;10.69;96.45
62789;BME280;66401;42.016;21.454;2024-02-26T06:17:53;97715.72;;;10.60;95.93
62789;BME280;66401;42.016;21.454;2024-02-26T06:20:18;97727.13;;;10.73;95.96
62789;BME280;66401;42.016;21.454;2024-02-26T06:22:44;97721.91;;;10.73;95.99
62789;BME280;66401;42.016;21.454;2024-02-26T06:25:10;97723.88;;;10.84;95.54
62789;BME280;66401;42.016;21.454;2024-02-26T06:27:35;97736.69;;;10.92;95.83
62789;BME280;66401;42.016;21.454;2024-02-26T06:30:01;97737.84;;;10.96;95.16
62789;BME280;66401;42.016;21.454;2024-02-26T06:32:26;97739.56;;;11.15;94.18
62789;BME280;66401;42.016;21.454;2024-02-26T06:34:54;97732.19;;;11.12;94.74
62789;BME280;66401;42.016;21.454;2024-02-26T06:37:19;97741.91;;;11.30;93.12
62789;BME280;66401;42.016;21.454;2024-02-26T06:39:44;97732.53;;;11.23;94.19
62789;BME280;66401;42.016;21.454;2024-02-26T06:42:10;97745.31;;;11.31;94.03
62789;BME280;66401;42.016;21.454;2024-02-26T06:44:36;97736.41;;;11.45;93.10
62789;BME280;66401;42.016;21.454;2024-02-26T06:47:01;97748.41;;;11.53;93.73
62789;BME280;66401;42.016;21.454;2024-02-26T06:49:27;97746.25;;;11.74;92.74
62789;BME280;66401;42.016;21.454;2024-02-26T06:51:53;97748.44;;;11.78;91.52
62789;BME280;66401;42.016;21.454;2024-02-26T06:54:19;97752.41;;;11.87;91.87
62789;BME280;66401;42.016;21.454;2024-02-26T06:56:44;97749.84;;;12.05;90.63
62789;BME280;66401;42.016;21.454;2024-02-26T06:59:10;97736.72;;;12.18;90.72
62789;BME280;66401;42.016;21.454;2024-02-26T07:01:35;97737.81;;;12.29;90.15
62789;BME280;66401;42.016;21.454;2024-02-26T07:04:01;97750.50;;;12.44;88.49
62789;BME280;66401;42.016;21.454;2024-02-26T07:06:27;97742.69;;;12.62;88.38
62789;BME280;66401;42.016;21.454;2024-02-26T07:08:53;97750.53;;;12.80;86.49
62789;BME280;66401;42.016;21.454;2024-02-26T07:11:19;97753.88;;;12.87;85.75
62789;BME280;66401;42.016;21.454;2024-02-26T07:13:48;97750.69;;;13.04;85.67
62789;BME280;66401;42.016;21.454;2024-02-26T07:16:15;97741.03;;;13.04;85.02
62789;BME280;66401;42.016;21.454;2024-02-26T07:18:41;97741.72;;;13.11;83.57
62789;BME280;66401;42.016;21.454;2024-02-26T07:21:06;97750.63;;;13.40;83.47
62789;BME280;66401;42.016;21.454;2024-02-26T07:23:32;97735.91;;;13.58;82.59
62789;BME280;66401;42.016;21.454;2024-02-26T07:25:58;97743.81;;;13.81;81.23
62789;BME280;66401;42.016;21.454;2024-02-26T07:28:24;97740.34;;;14.11;81.17
62789;BME280;66401;42.016;21.454;2024-02-26T07:30:50;97731.22;;;14.13;79.21
62789;BME280;66401;42.016;21.454;2024-02-26T07:33:15;97725.97;;;14.25;78.92
62789;BME280;66401;42.016;21.454;2024-02-26T07:35:41;97731.81;;;14.50;77.09
62789;BME280;66401;42.016;21.454;2024-02-26T07:38:06;97732.94;;;14.43;77.96
62789;BME280;66401;42.016;21.454;2024-02-26T07:40:32;97740.91;;;14.59;78.13
62789;BME280;66401;42.016;21.454;2024-02-26T07:42:57;97741.69;;;14.72;76.23
62789;BME280;66401;42.016;21.454;2024-02-26T07:45:23;97734.75;;;15.17;74.58
62789;BME280;66401;42.016;21.454;2024-02-26T07:47:48;97742.31;;;15.02;75.51
62789;BME280;66401;42.016;21.454;2024-02-26T07:50:16;97733.03;;;15.40;73.46
62789;BME280;66401;42.016;21.454;2024-02-26T07:52:43;97737.19;;;15.81;71.65
62789;BME280;66401;42.016;21.454;2024-02-26T07:55:10;97745.22;;;15.74;71.13
62789;BME280;66401;42.016;21.454;2024-02-26T07:57:36;97738.84;;;16.21;70.27
62789;BME280;66401;42.016;21.454;2024-02-26T08:00:02;97742.47;;;16.70;68.77
62789;BME280;66401;42.016;21.454;2024-02-26T08:02:28;97738.31;;;16.74;66.16
62789;BME280;66401;42.016;21.454;2024-02-26T08:04:54;97740.63;;;16.93;66.63
62789;BME280;66401;42.016;21.454;2024-02-26T08:07:19;97741.94;;;16.90;67.02
62789;BME280;66401;42.016;21.454;2024-02-26T08:09:46;97748.22;;;17.11;66.79
62789;BME280;66401;42.016;21.454;2024-02-26T08:12:12;97732.84;;;17.52;62.86
62789;BME280;66401;42.016;21.454;2024-02-26T08:14:37;97736.31;;;17.84;62.43
62789;BME280;66401;42.016;21.454;2024-02-26T08:17:03;97732.31;;;17.77;62.52
62789;BME280;66401;42.016;21.454;2024-02-26T08:19:29;97746.06;;;17.08;63.28
62789;BME280;66401;42.016;21.454;2024-02-26T08:21:54;97744.03;;;17.15;63.12
62789;BME280;66401;42.016;21.454;2024-02-26T08:24:20;97732.41;;;17.33;63.00
62789;BME280;66401;42.016;21.454;2024-02-26T08:26:45;97725.44;;;18.08;61.62
62789;BME280;66401;42.016;21.454;2024-02-26T08:29:11;97722.75;;;18.87;59.69
62789;BME280;66401;42.016;21.454;2024-02-26T08:31:36;97721.13;;;18.76;56.34
62789;BME280;66401;42.016;21.454;2024-02-26T08:34:03;97726.19;;;18.82;58.32
62789;BME280;66401;42.016;21.454;2024-02-26T08:36:30;97723.53;;;18.40;57.28
62789;BME280;66401;42.016;21.454;2024-02-26T08:38:57;97722.53;;;18.46;56.88
62789;BME280;66401;42.016;21.454;2024-02-26T08:41:22;97736.19;;;18.01;58.87
62789;BME280;66401;42.016;21.454;2024-02-26T08:43:47;97723.19;;;17.89;60.02
62789;BME280;66401;42.016;21.454;2024-02-26T08:46:13;97721.28;;;18.17;59.55
62789;BME280;66401;42.016;21.454;2024-02-26T08:48:39;97712.75;;;18.94;58.46
62789;BME280;66401;42.016;21.454;2024-02-26T08:51:08;97719.28;;;20.00;55.23
62789;BME280;66401;42.016;21.454;2024-02-26T08:53:35;97719.41;;;20.65;51.44
62789;BME280;66401;42.016;21.454;2024-02-26T08:56:00;97710.78;;;21.92;48.83
62789;BME280;66401;42.016;21.454;2024-02-26T08:58:29;97712.50;;;22.83;44.24
62789;BME280;66401;42.016;21.454;2024-02-26T09:00:55;97708.69;;;23.51;44.25
62789;BME280;66401;42.016;21.454;2024-02-26T09:03:21;97702.78;;;23.54;43.59
62789;BME280;66401;42.016;21.454;2024-02-26T09:05:46;97707.34;;;24.19;42.50
62789;BME280;66401;42.016;21.454;2024-02-26T09:08:12;97716.06;;;24.79;38.19
62789;BME280;66401;42.016;21.454;2024-02-26T09:10:38;97709.75;;;25.75;37.45
62789;BME280;66401;42.016;21.454;2024-02-26T09:13:04;97696.56;;;27.29;32.58
62789;BME280;66401;42.016;21.454;2024-02-26T09:15:29;97701.41;;;27.09;31.29
62789;BME280;66401;42.016;21.454;2024-02-26T09:17:55;97702.84;;;27.67;29.96
62789;BME280;66401;42.016;21.454;2024-02-26T09:20:21;97694.41;;;26.74;31.76
62789;BME280;66401;42.016;21.454;2024-02-26T09:22:47;97694.06;;;27.41;32.44
62789;BME280;66401;42.016;21.454;2024-02-26T09:25:13;97708.72;;;29.22;28.70
62789;BME280;66401;42.016;21.454;2024-02-26T09:27:42;97708.94;;;28.58;29.75
62789;BME280;66401;42.016;21.454;2024-02-26T09:30:11;97695.31;;;29.64;27.43
62789;BME280;66401;42.016;21.454;2024-02-26T09:32:37;97697.31;;;30.94;26.42
62789;BME280;66401;42.016;21.454;2024-02-26T09:35:03;97696.38;;;31.27;25.44
62789;BME280;66401;42.016;21.454;2024-02-26T09:37:29;97693.50;;;31.48;24.02
62789;BME280;66401;42.016;21.454;2024-02-26T09:39:54;97700.94;;;31.39;24.48
62789;BME280;66401;42.016;21.454;2024-02-26T09:42:20;97696.97;;;30.47;23.78
62789;BME280;66401;42.016;21.454;2024-02-26T09:44:45;97692.06;;;29.38;25.34
62789;BME280;66401;42.016;21.454;2024-02-26T09:47:12;97692.16;;;27.67;27.75
62789;BME280;66401;42.016;21.454;2024-02-26T09:49:46;97697.16;;;25.89;30.69
62789;BME280;66401;42.016;21.454;2024-02-26T09:52:15;97691.53;;;25.32;31.21
62789;BME280;66401;42.016;21.454;2024-02-26T09:54:41;97692.09;;;25.07;31.86
62789;BME280;66401;42.016;21.454;2024-02-26T09:57:09;97681.28;;;27.38;29.24
62789;BME280;66401;42.016;21.454;2024-02-26T09:59:41;97685.06;;;27.63;28.03
62789;BME280;66401;42.016;21.454;2024-02-26T10:02:18;97687.78;;;26.32;29.84
62789;BME280;66401;42.016;21.454;2024-02-26T10:04:46;97692.00;;;25.48;30.99
62789;BME280;66401;42.016;21.454;2024-02-26T10:07:13;97686.81;;;24.66;32.48
62789;BME280;66401;42.016;21.454;2024-02-26T10:09:39;97678.53;;;26.29;30.18
62789;BME280;66401;42.016;21.454;2024-02-26T10:12:05;97686.78;;;27.50;27.49
62789;BME280;66401;42.016;21.454;2024-02-26T10:14:32;97676.59;;;27.52;27.44
62789;BME280;66401;42.016;21.454;2024-02-26T10:16:58;97682.91;;;26.34;29.52
62789;BME280;66401;42.016;21.454;2024-02-26T10:19:27;97674.88;;;24.63;31.27
62789;BME280;66401;42.016;21.454;2024-02-26T10:21:57;97663.22;;;24.32;31.34
62789;BME280;66401;42.016;21.454;2024-02-26T10:24:24;97676.81;;;24.16;32.23
62789;BME280;66401;42.016;21.454;2024-02-26T10:26:51;97652.44;;;22.69;35.38
62789;BME280;66401;42.016;21.454;2024-02-26T10:29:18;97667.06;;;22.90;34.59
62789;BME280;66401;42.016;21.454;2024-02-26T10:31:43;97670.00;;;22.65;35.69
62789;BME280;66401;42.016;21.454;2024-02-26T10:34:09;97656.69;;;21.93;36.52
62789;BME280;66401;42.016;21.454;2024-02-26T10:36:36;97662.78;;;21.59;36.93
62789;BME280;66401;42.016;21.454;2024-02-26T10:39:03;97659.19;;;21.01;39.26
62789;BME280;66401;42.016;21.454;2024-02-26T10:41:30;97652.28;;;20.35;39.07
62789;BME280;66401;42.016;21.454;2024-02-26T10:43:55;97644.69;;;20.13;40.22
62789;BME280;66401;42.016;21.454;2024-02-26T10:46:21;97649.50;;;19.91;38.71
62789;BME280;66401;42.016;21.454;2024-02-26T10:48:53;97646.59;;;19.77;39.54
62789;BME280;66401;42.016;21.454;2024-02-26T10:51:26;97644.22;;;19.40;38.21
62789;BME280;66401;42.016;21.454;2024-02-26T10:53:55;97641.50;;;18.94;39.96
62789;BME280;66401;42.016;21.454;2024-02-26T10:56:28;97638.66;;;19.47;38.04
62789;BME280;66401;42.016;21.454;2024-02-26T10:58:57;97648.72;;;19.75;37.84
62789;BME280;66401;42.016;21.454;2024-02-26T11:01:24;97643.72;;;19.79;36.87
62789;BME280;66401;42.016;21.454;2024-02-26T11:03:51;97640.50;;;19.97;36.93
62789;BME280;66401;42.016;21.454;2024-02-26T11:06:18;97643.28;;;20.56;36.35
62789;BME280;66401;42.016;21.454;2024-02-26T11:08:48;97632.25;;;20.89;35.77
62789;BME280;66401;42.016;21.454;2024-02-26T11:11:15;97637.94;;;21.55;34.86
62789;BME280;66401;42.016;21.454;2024-02-26T11:13:44;97635.81;;;22.58;33.53
62789;BME280;66401;42.016;21.454;2024-02-26T11:16:13;97621.09;;;22.71;33.02
62789;BME280;66401;42.016;21.454;2024-02-26T11:18:40;97623.91;;;23.68;30.46
62789;BME280;66401;42.016;21.454;2024-02-26T11:21:07;97622.75;;;23.04;31.43
62789;BME280;66401;42.016;21.454;2024-02-26T11:23:34;97622.44;;;21.96;33.82
62789;BME280;66401;42.016;21.454;2024-02-26T11:26:04;97625.16;;;21.91;34.33
62789;BME280;66401;42.016;21.454;2024-02-26T11:28:32;97620.66;;;21.63;34.02
62789;BME280;66401;42.016;21.454;2024-02-26T11:31:00;97612.44;;;21.59;33.85
62789;BME280;66401;42.016;21.454;2024-02-26T11:33:27;97612.94;;;22.86;32.80
62789;BME280;66401;42.016;21.454;2024-02-26T11:35:53;97608.75;;;24.93;30.19
62789;BME280;66401;42.016;21.454;2024-02-26T11:38:21;97611.28;;;26.18;28.52
62789;BME280;66401;42.016;21.454;2024-02-26T11:40:50;97610.81;;;26.82;27.95
62789;BME280;66401;42.016;21.454;2024-02-26T11:43:16;97616.22;;;25.27;29.22
62789;BME280;66401;42.016;21.454;2024-02-26T11:48:24;97619.28;;;27.62;26.37
62789;BME280;66401;42.016;21.454;2024-02-26T11:50:54;97611.31;;;29.30;24.10
62789;BME280;66401;42.016;21.454;2024-02-26T11:53:29;97610.63;;;30.73;22.01
62789;BME280;66401;42.016;21.454;2024-02-26T11:56:34;97612.34;;;32.56;20.77
62789;BME280;66401;42.016;21.454;2024-02-26T11:59:04;97607.59;;;32.85;20.69
62789;BME280;66401;42.016;21.454;2024-02-26T12:01:42;97612.38;;;32.75;20.41
62789;BME280;66401;42.016;21.454;2024-02-26T12:04:23;97614.56;;;34.35;18.84
62789;BME280;66401;42.016;21.454;2024-02-26T12:07:00;97609.69;;;34.97;18.30
62789;BME280;66401;42.016;21.454;2024-02-26T12:09:42;97598.25;;;34.55;18.13
62789;BME280;66401;42.016;21.454;2024-02-26T12:12:17;97585.28;;;31.14;21.32
62789;BME280;66401;42.016;21.454;2024-02-26T12:14:58;97594.84;;;29.20;23.32
62789;BME280;66401;42.016;21.454;2024-02-26T12:17:25;97610.50;;;28.08;23.86
62789;BME280;66401;42.016;21.454;2024-02-26T12:19:51;97601.69;;;25.78;27.19
62789;BME280;66401;42.016;21.454;2024-02-26T12:22:19;97591.91;;;23.41;29.33
62789;BME280;66401;42.016;21.454;2024-02-26T12:24:45;97591.59;;;22.72;31.57
62789;BME280;66401;42.016;21.454;2024-02-26T12:27:11;97582.59;;;22.92;31.83
62789;BME280;66401;42.016;21.454;2024-02-26T12:29:37;97576.97;;;22.94;31.09
62789;BME280;66401;42.016;21.454;2024-02-26T12:32:05;97569.94;;;24.64;29.57
62789;BME280;66401;42.016;21.454;2024-02-26T12:34:31;97598.59;;;25.62;26.57
62789;BME280;66401;42.016;21.454;2024-02-26T12:36:57;97583.97;;;22.47;31.15
62789;BME280;66401;42.016;21.454;2024-02-26T12:39:23;97578.44;;;21.95;32.54
62789;BME280;66401;42.016;21.454;2024-02-26T12:41:49;97576.41;;;21.58;32.94
62789;BME280;66401;42.016;21.454;2024-02-26T12:44:16;97572.75;;;21.20;33.02
62789;BME280;66401;42.016;21.454;2024-02-26T12:46:41;97563.66;;;20.92;33.95
62789;BME280;66401;42.016;21.454;2024-02-26T12:49:07;97570.38;;;22.06;32.41
62789;BME280;66401;42.016;21.454;2024-02-26T12:51:33;97572.56;;;24.14;30.52